Time;durP1;ratioP1;P1;durP2;ratioP2;P2;SDS_P1;SDS_P2;PMS_P1;PMS_P2;Temp;Humidity;BMP_temperature;BMP_pressure;BME280_temperature;BME280_humidity;BME280_pressure;Samples;Min_cycle;Max_cycle;Signal;HPM_P1;HPM_P2
2021/11/18 00:00:56;;;;;;;9.82;9.32;;;9.80;79.60;;;;;;5049189;28;20446;-76
2021/11/18 00:03:23;;;;;;;10.93;10.10;;;9.80;79.70;;;;;;5067121;28;20041;-76
2021/11/18 00:05:49;;;;;;;10.30;9.80;;;9.70;79.60;;;;;;5048945;28;20054;-75
2021/11/18 00:08:15;;;;;;;10.50;9.85;;;9.70;79.60;;;;;;5049074;28;20044;-75
2021/11/18 00:10:45;;;;;;;10.10;9.60;;;9.70;79.60;;;;;;5049032;28;20028;-75
2021/11/18 00:13:13;;;;;;;10.27;9.65;;;9.70;79.60;;;;;;5050795;28;20037;-76
2021/11/18 00:15:41;;;;;;;10.52;10.02;;;9.70;79.70;;;;;;5049589;28;20033;-76
2021/11/18 00:18:10;;;;;;;10.35;9.85;;;9.60;79.60;;;;;;5057511;28;20041;-76
2021/11/18 00:20:39;;;;;;;10.00;9.50;;;9.60;79.60;;;;;;5052895;28;20029;-76
2021/11/18 00:23:05;;;;;;;10.38;9.88;;;9.60;79.70;;;;;;5033130;28;20033;-75
2021/11/18 00:25:31;;;;;;;10.75;10.18;;;9.50;79.70;;;;;;5048566;28;20051;-76
2021/11/18 00:27:58;;;;;;;10.35;9.85;;;9.50;79.70;;;;;;5049501;28;20056;-75
2021/11/18 00:30:24;;;;;;;9.82;9.40;;;9.50;79.80;;;;;;5049907;28;20056;-76
2021/11/18 00:32:50;;;;;;;10.20;9.70;;;9.40;79.70;;;;;;5047151;28;20044;-76
2021/11/18 00:35:19;;;;;;;9.50;9.00;;;9.40;79.70;;;;;;5049932;28;20041;-76
2021/11/18 00:37:45;;;;;;;10.43;9.93;;;9.40;79.70;;;;;;5050020;28;20425;-75
2021/11/18 00:40:13;;;;;;;10.25;9.65;;;9.40;79.70;;;;;;5047892;28;20051;-76
2021/11/18 00:42:39;;;;;;;9.40;8.90;;;9.40;79.70;;;;;;5030053;28;20045;-75
2021/11/18 00:45:06;;;;;;;10.63;10.05;;;9.40;79.70;;;;;;5047077;28;20040;-76
2021/11/18 00:47:32;;;;;;;10.07;9.52;;;9.40;79.70;;;;;;5051273;28;20032;-75
2021/11/18 00:49:58;;;;;;;9.68;9.07;;;9.30;79.60;;;;;;5039176;28;20037;-75
2021/11/18 00:52:24;;;;;;;8.88;8.48;;;9.40;79.60;;;;;;5048588;28;20036;-75
2021/11/18 00:54:50;;;;;;;9.38;8.88;;;9.40;79.70;;;;;;5049608;28;20376;-75
2021/11/18 00:57:16;;;;;;;9.45;9.05;;;9.40;79.60;;;;;;5049979;28;20465;-76
2021/11/18 00:59:46;;;;;;;9.90;9.40;;;9.40;79.50;;;;;;5053392;28;20040;-76
2021/11/18 01:02:13;;;;;;;9.95;9.25;;;9.40;79.50;;;;;;5053612;28;20040;-76
2021/11/18 01:04:39;;;;;;;9.57;9.07;;;9.40;79.40;;;;;;5050979;28;20025;-76
2021/11/18 01:07:05;;;;;;;8.93;8.52;;;9.40;79.40;;;;;;5053437;28;20033;-76
2021/11/18 01:09:31;;;;;;;9.52;9.07;;;9.30;79.30;;;;;;5055567;28;20051;-76
2021/11/18 01:11:57;;;;;;;10.85;10.25;;;9.30;79.30;;;;;;5051719;28;20028;-76
2021/11/18 01:14:24;;;;;;;10.40;9.90;;;9.40;79.30;;;;;;5053259;28;20036;-75
2021/11/18 01:16:50;;;;;;;10.07;9.57;;;9.40;79.40;;;;;;5051492;28;20603;-76
2021/11/18 01:19:16;;;;;;;9.50;9.05;;;9.40;79.40;;;;;;5064105;28;20036;-76
2021/11/18 01:21:44;;;;;;;10.30;9.57;;;9.30;79.30;;;;;;5054473;28;20029;-75
2021/11/18 01:24:10;;;;;;;10.82;10.10;;;9.30;79.30;;;;;;5051858;28;20382;-75
2021/11/18 01:26:36;;;;;;;10.40;9.90;;;9.30;79.20;;;;;;5052062;28;20033;-76
2021/11/18 01:29:03;;;;;;;9.98;9.48;;;9.30;79.20;;;;;;5051981;28;20045;-75
2021/11/18 01:31:30;;;;;;;9.43;9.02;;;9.30;79.30;;;;;;5050908;28;20048;-76
2021/11/18 01:33:56;;;;;;;10.05;9.45;;;9.30;79.30;;;;;;5051808;28;20025;-75
2021/11/18 01:36:22;;;;;;;10.88;10.07;;;9.20;79.30;;;;;;5054963;28;20486;-76
2021/11/18 01:38:48;;;;;;;9.85;9.27;;;9.20;79.30;;;;;;5052741;28;20048;-76
2021/11/18 01:41:22;;;;;;;10.00;9.50;;;9.20;79.30;;;;;;5057292;28;20033;-75
2021/11/18 01:43:53;;;;;;;9.90;9.38;;;9.20;79.40;;;;;;5052592;28;20509;-76
2021/11/18 01:46:26;;;;;;;9.70;9.20;;;9.10;79.30;;;;;;5033764;28;20029;-76
2021/11/18 01:48:53;;;;;;;9.98;9.48;;;9.10;79.30;;;;;;5046510;28;20056;-75
2021/11/18 01:51:29;;;;;;;8.93;8.52;;;9.10;79.40;;;;;;5034424;28;20048;-75
2021/11/18 01:53:55;;;;;;;8.60;8.10;;;9.10;79.40;;;;;;5051918;28;20092;-76
2021/11/18 01:56:25;;;;;;;7.95;7.55;;;9.10;79.30;;;;;;5051885;28;20035;-76
2021/11/18 01:58:56;;;;;;;8.43;8.00;;;9.10;79.30;;;;;;5051528;28;20029;-75
2021/11/18 02:01:23;;;;;;;8.48;7.97;;;9.10;79.30;;;;;;5050875;28;20026;-76
2021/11/18 02:03:49;;;;;;;9.32;8.63;;;9.10;79.30;;;;;;5052478;28;20029;-76
2021/11/18 02:06:32;;;;;;;7.72;7.32;;;9.10;79.20;;;;;;5054183;28;20040;-75
2021/11/18 02:08:59;;;;;;;8.25;7.85;;;9.20;79.30;;;;;;5049014;28;20045;-76
2021/11/18 02:11:39;;;;;;;8.70;8.30;;;9.20;79.30;;;;;;5046170;28;20020;-76
2021/11/18 02:14:09;;;;;;;8.50;8.10;;;9.20;79.30;;;;;;5051031;28;20055;-75
2021/11/18 02:16:35;;;;;;;8.23;7.82;;;9.20;79.20;;;;;;5049808;28;20047;-76
2021/11/18 02:19:03;;;;;;;9.15;8.68;;;9.20;79.20;;;;;;5059408;28;20047;-76
2021/11/18 02:21:29;;;;;;;8.55;8.05;;;9.20;79.20;;;;;;5053867;28;20029;-76
2021/11/18 02:23:58;;;;;;;8.63;8.13;;;9.20;79.20;;;;;;5052259;28;20037;-76
2021/11/18 02:26:25;;;;;;;8.77;8.27;;;9.20;79.90;;;;;;5051249;28;20032;-76
2021/11/18 02:28:53;;;;;;;9.52;8.82;;;9.20;79.20;;;;;;5031838;28;20052;-75
2021/11/18 02:31:22;;;;;;;8.38;7.93;;;9.20;79.20;;;;;;5050619;28;20111;-76
2021/11/18 02:33:48;;;;;;;8.85;8.40;;;9.20;79.20;;;;;;5052449;28;20048;-76
2021/11/18 02:36:15;;;;;;;10.82;10.23;;;9.20;79.20;;;;;;5035808;28;20462;-76
2021/11/18 02:38:41;;;;;;;9.57;9.07;;;9.10;79.10;;;;;;5051923;28;20033;-76
2021/11/18 02:41:12;;;;;;;9.48;8.98;;;9.10;79.20;;;;;;5050864;28;20032;-76
2021/11/18 02:43:38;;;;;;;9.00;8.60;;;9.00;79.20;;;;;;5051317;28;20035;-75
2021/11/18 02:46:04;;;;;;;9.43;8.93;;;9.00;79.20;;;;;;5017950;28;20029;-75
2021/11/18 02:48:30;;;;;;;9.75;9.25;;;9.00;79.30;;;;;;5061409;28;20044;-76
2021/11/18 02:50:59;;;;;;;9.32;8.88;;;9.00;79.30;;;;;;5051364;28;20049;-76
2021/11/18 02:53:25;;;;;;;9.40;8.98;;;9.00;79.40;;;;;;5051363;28;20025;-75
2021/11/18 02:55:52;;;;;;;9.60;9.15;;;9.00;79.40;;;;;;5050631;28;20033;-76
2021/11/18 02:58:18;;;;;;;8.95;8.55;;;8.90;79.30;;;;;;5048784;28;20033;-76
2021/11/18 03:00:44;;;;;;;9.70;9.20;;;8.90;79.40;;;;;;5050368;28;20032;-75
2021/11/18 03:03:10;;;;;;;9.27;8.68;;;8.80;79.40;;;;;;5047495;28;20040;-75
2021/11/18 03:05:36;;;;;;;9.20;8.70;;;8.80;79.40;;;;;;5043825;28;20363;-75
2021/11/18 03:08:03;;;;;;;9.20;8.73;;;8.80;79.40;;;;;;5043539;28;20461;-75
2021/11/18 03:10:29;;;;;;;10.77;9.93;;;8.80;79.40;;;;;;5050740;28;20055;-75
2021/11/18 03:12:55;;;;;;;9.63;8.95;;;8.80;79.50;;;;;;5032358;28;20037;-75
2021/11/18 03:15:22;;;;;;;8.93;8.43;;;8.70;79.50;;;;;;5044800;28;20047;-76
2021/11/18 03:17:48;;;;;;;8.90;8.50;;;8.70;79.50;;;;;;5047566;28;20044;-76
2021/11/18 03:20:15;;;;;;;9.25;8.75;;;8.70;79.50;;;;;;5052668;28;20059;-75
2021/11/18 03:22:42;;;;;;;10.57;9.77;;;8.60;79.50;;;;;;5031951;28;20048;-75
2021/11/18 03:25:09;;;;;;;9.35;8.85;;;8.60;79.50;;;;;;5031268;28;20480;-76
2021/11/18 03:27:35;;;;;;;9.07;8.60;;;8.60;79.50;;;;;;5032114;28;20025;-75
2021/11/18 03:30:02;;;;;;;9.13;8.63;;;8.60;79.50;;;;;;5048757;28;20055;-76
2021/11/18 03:32:28;;;;;;;9.15;8.75;;;8.50;79.50;;;;;;5047937;28;20048;-75
2021/11/18 03:34:54;;;;;;;10.25;9.38;;;8.50;79.60;;;;;;5047618;28;20036;-76
2021/11/18 03:37:20;;;;;;;9.77;9.02;;;8.50;79.60;;;;;;5045824;28;20049;-75
2021/11/18 03:39:46;;;;;;;8.65;8.25;;;8.50;79.60;;;;;;5049743;28;20055;-76
2021/11/18 03:42:13;;;;;;;10.10;9.60;;;8.50;79.60;;;;;;5050102;28;20049;-75
2021/11/18 03:44:39;;;;;;;9.75;9.10;;;8.50;79.60;;;;;;5049449;28;20048;-75
2021/11/18 03:47:07;;;;;;;8.90;8.50;;;8.50;79.60;;;;;;5048947;28;20029;-75
2021/11/18 03:49:34;;;;;;;8.60;8.10;;;8.40;79.50;;;;;;5058524;28;20033;-76
2021/11/18 03:52:00;;;;;;;8.23;7.82;;;8.40;79.50;;;;;;5049090;28;20084;-75
2021/11/18 03:54:28;;;;;;;9.48;8.98;;;8.40;79.50;;;;;;5050941;28;20025;-75
2021/11/18 03:56:54;;;;;;;8.40;8.00;;;8.40;79.50;;;;;;5049052;28;20036;-75
2021/11/18 03:59:29;;;;;;;10.20;9.60;;;8.40;79.60;;;;;;5049311;28;20037;-76
2021/11/18 04:01:55;;;;;;;9.02;8.45;;;8.40;79.60;;;;;;5048722;28;20033;-75
2021/11/18 04:04:24;;;;;;;8.32;7.93;;;8.40;79.60;;;;;;5049710;28;20025;-75
2021/11/18 04:06:50;;;;;;;8.63;8.23;;;8.30;79.50;;;;;;5049344;28;20373;-75
2021/11/18 04:09:17;;;;;;;9.57;8.77;;;8.30;79.50;;;;;;5034313;28;20041;-76
2021/11/18 04:11:44;;;;;;;8.85;8.45;;;8.30;79.50;;;;;;5049079;28;20421;-75
2021/11/18 04:14:11;;;;;;;7.63;7.25;;;8.30;79.50;;;;;;5049245;28;20037;-75
2021/11/18 04:16:38;;;;;;;8.38;7.97;;;8.30;79.60;;;;;;5049735;28;20072;-76
2021/11/18 04:19:04;;;;;;;8.15;7.75;;;8.20;79.50;;;;;;5057330;28;20120;-75
2021/11/18 04:21:32;;;;;;;9.30;8.57;;;8.20;79.50;;;;;;5050248;28;20021;-75
2021/11/18 04:24:00;;;;;;;9.88;9.27;;;8.20;79.60;;;;;;5050020;28;20048;-75
2021/11/18 04:26:27;;;;;;;8.93;8.52;;;8.10;79.60;;;;;;5047229;28;20035;-75
2021/11/18 04:28:53;;;;;;;8.82;8.43;;;8.10;79.60;;;;;;5049805;28;20045;-76
2021/11/18 04:31:21;;;;;;;8.95;8.45;;;8.00;79.60;;;;;;5049207;28;20036;-76
2021/11/18 04:33:47;;;;;;;8.23;7.83;;;8.00;79.70;;;;;;5049640;28;20021;-75
2021/11/18 04:36:14;;;;;;;8.20;7.80;;;8.00;79.70;;;;;;5049932;28;20053;-75
2021/11/18 04:38:42;;;;;;;7.63;7.30;;;8.00;79.70;;;;;;5046063;28;20041;-75
2021/11/18 04:41:08;;;;;;;8.25;7.85;;;7.90;79.60;;;;;;5047535;28;20424;-75
2021/11/18 04:43:34;;;;;;;7.63;7.23;;;7.90;79.60;;;;;;5048326;28;20028;-75
2021/11/18 04:46:01;;;;;;;7.65;7.25;;;7.90;79.70;;;;;;5049256;28;20045;-76
2021/11/18 04:48:29;;;;;;;8.47;7.93;;;7.90;79.60;;;;;;5051256;28;20040;-75
2021/11/18 04:50:55;;;;;;;9.37;8.80;;;7.90;79.60;;;;;;5049541;28;20059;-75
2021/11/18 04:53:26;;;;;;;8.93;8.40;;;7.90;79.60;;;;;;5047151;28;20025;-75
2021/11/18 04:55:52;;;;;;;8.93;8.43;;;7.90;79.60;;;;;;5047781;28;20049;-75
2021/11/18 04:58:18;;;;;;;9.20;8.70;;;7.80;79.60;;;;;;5049737;28;20040;-76
2021/11/18 05:00:47;;;;;;;8.45;8.05;;;7.80;79.70;;;;;;5060121;28;20032;-75
2021/11/18 05:03:13;;;;;;;9.02;8.52;;;7.80;79.70;;;;;;5032853;28;20374;-75
2021/11/18 05:05:39;;;;;;;9.05;8.55;;;7.80;79.70;;;;;;5046952;28;20029;-75
2021/11/18 05:08:06;;;;;;;8.40;8.00;;;7.80;79.70;;;;;;5048353;28;20025;-76
2021/11/18 05:10:32;;;;;;;8.38;7.97;;;7.70;79.70;;;;;;5048206;28;20047;-75
2021/11/18 05:12:58;;;;;;;8.95;8.55;;;7.70;79.60;;;;;;5048424;28;20033;-75
2021/11/18 05:15:28;;;;;;;8.63;8.18;;;7.70;79.70;;;;;;5050237;28;20033;-75
2021/11/18 05:17:55;;;;;;;8.60;8.20;;;7.70;79.80;;;;;;5051518;28;20363;-75
2021/11/18 05:20:22;;;;;;;9.38;8.88;;;7.60;79.70;;;;;;5054001;28;20040;-76
2021/11/18 05:22:48;;;;;;;8.30;7.90;;;7.60;79.70;;;;;;5049099;28;20056;-76
2021/11/18 05:25:15;;;;;;;8.87;8.37;;;7.60;79.70;;;;;;5048316;28;20028;-76
2021/11/18 05:27:41;;;;;;;8.43;8.03;;;7.60;79.60;;;;;;5030069;28;20042;-76
2021/11/18 05:30:08;;;;;;;8.98;8.48;;;7.60;79.60;;;;;;5046195;28;20045;-75
2021/11/18 05:32:34;;;;;;;9.20;8.70;;;7.60;79.70;;;;;;5047741;28;20375;-75
2021/11/18 05:35:01;;;;;;;8.83;8.33;;;7.50;79.70;;;;;;5048735;28;20421;-75
2021/11/18 05:37:27;;;;;;;8.57;8.18;;;7.50;79.70;;;;;;5048941;28;20029;-75
2021/11/18 05:39:53;;;;;;;8.73;8.32;;;7.50;79.70;;;;;;5048743;28;20037;-75
2021/11/18 05:42:19;;;;;;;8.68;8.27;;;7.50;79.70;;;;;;5051151;28;20025;-75
2021/11/18 05:44:48;;;;;;;10.38;9.55;;;7.50;79.70;;;;;;5046665;28;20036;-75
2021/11/18 05:47:18;;;;;;;9.83;9.23;;;7.40;79.70;;;;;;5048288;28;20025;-75
2021/11/18 05:49:44;;;;;;;8.73;8.33;;;7.40;79.70;;;;;;5058799;28;20040;-75
2021/11/18 05:52:10;;;;;;;8.43;8.03;;;7.30;79.70;;;;;;5050290;28;20034;-74
2021/11/18 05:54:36;;;;;;;8.50;8.10;;;7.40;79.80;;;;;;5054374;28;20048;-76
2021/11/18 05:57:03;;;;;;;8.90;8.50;;;7.30;79.70;;;;;;5052640;28;20381;-75
2021/11/18 05:59:29;;;;;;;8.47;8.07;;;7.30;79.70;;;;;;5051716;28;20040;-75
2021/11/18 06:01:55;;;;;;;8.27;7.88;;;7.30;79.70;;;;;;5050190;28;20037;-75
2021/11/18 06:04:21;;;;;;;7.67;7.27;;;7.30;79.70;;;;;;5051476;28;20033;-75
2021/11/18 06:06:47;;;;;;;8.70;8.23;;;7.30;79.70;;;;;;5052794;28;20036;-76
2021/11/18 06:09:14;;;;;;;8.10;7.70;;;7.30;79.70;;;;;;5036139;28;20040;-77
2021/11/18 06:11:41;;;;;;;8.80;8.30;;;7.30;79.70;;;;;;5047880;28;20044;-76
2021/11/18 06:14:07;;;;;;;8.10;7.70;;;7.30;79.60;;;;;;5047381;28;20492;-76
2021/11/18 06:16:34;;;;;;;7.97;7.57;;;7.30;79.60;;;;;;5051415;28;20037;-77
2021/11/18 06:19:03;;;;;;;8.98;8.55;;;7.30;79.60;;;;;;5054444;28;20770;-76
2021/11/18 06:21:30;;;;;;;8.73;8.32;;;7.30;79.50;;;;;;5053439;28;20025;-75
2021/11/18 06:23:56;;;;;;;8.77;8.38;;;7.30;79.50;;;;;;5049278;28;20044;-76
2021/11/18 06:26:25;;;;;;;8.83;8.33;;;7.30;79.50;;;;;;5052101;28;20025;-75
2021/11/18 06:28:51;;;;;;;8.63;8.23;;;7.30;79.40;;;;;;5050800;28;20387;-76
2021/11/18 06:31:17;;;;;;;13.63;12.53;;;7.30;79.30;;;;;;5051498;28;20037;-76
2021/11/18 06:33:44;;;;;;;8.07;7.68;;;7.30;79.30;;;;;;5030525;28;20068;-76
2021/11/18 06:36:10;;;;;;;7.17;6.77;;;7.30;79.40;;;;;;5045795;28;20057;-76
2021/11/18 06:38:37;;;;;;;7.05;6.68;;;7.30;79.40;;;;;;5047175;28;20036;-76
2021/11/18 06:41:03;;;;;;;7.07;6.67;;;7.30;79.40;;;;;;5048802;28;20040;-75
2021/11/18 06:43:29;;;;;;;7.67;7.27;;;7.30;79.30;;;;;;5047961;28;20044;-76
2021/11/18 06:45:55;;;;;;;7.53;7.07;;;7.30;79.50;;;;;;5050859;28;20044;-76
2021/11/18 06:48:22;;;;;;;7.82;7.43;;;7.30;79.50;;;;;;5052351;28;20033;-76
2021/11/18 06:50:49;;;;;;;7.23;6.83;;;7.30;79.40;;;;;;5031949;28;20433;-76
2021/11/18 06:53:15;;;;;;;8.70;8.10;;;7.30;79.50;;;;;;5032432;28;20401;-75
2021/11/18 06:55:41;;;;;;;8.83;8.23;;;7.30;79.40;;;;;;5050288;28;20037;-76
2021/11/18 06:58:07;;;;;;;7.22;6.88;;;7.30;79.40;;;;;;5049257;28;20041;-76
2021/11/18 07:00:33;;;;;;;7.50;7.10;;;7.30;79.50;;;;;;5066069;28;20041;-75
2021/11/18 07:03:00;;;;;;;7.63;7.23;;;7.30;79.40;;;;;;5048776;28;20439;-76
2021/11/18 07:05:26;;;;;;;7.83;7.43;;;7.30;79.40;;;;;;5051671;28;20048;-76
2021/11/18 07:07:52;;;;;;;7.83;7.13;;;7.30;79.40;;;;;;5050607;28;20036;-76
2021/11/18 07:10:18;;;;;;;7.87;7.37;;;7.30;79.50;;;;;;5049938;28;20056;-76
2021/11/18 07:12:44;;;;;;;9.43;8.67;;;7.30;79.40;;;;;;5050231;28;20391;-76
2021/11/18 07:15:11;;;;;;;9.27;8.63;;;7.30;79.50;;;;;;5048283;28;20036;-76
2021/11/18 07:17:37;;;;;;;8.23;7.77;;;7.30;79.50;;;;;;5050201;28;20029;-76
2021/11/18 07:20:05;;;;;;;9.83;8.90;;;7.20;80.10;;;;;;5049399;28;20498;-76
2021/11/18 07:22:31;;;;;;;8.25;7.85;;;7.20;79.40;;;;;;5049916;28;20029;-76
2021/11/18 07:24:58;;;;;;;8.43;8.03;;;7.30;79.50;;;;;;5050015;28;20133;-76
2021/11/18 07:27:24;;;;;;;7.65;7.30;;;7.30;79.40;;;;;;5047232;28;20029;-75
2021/11/18 07:29:50;;;;;;;8.30;7.90;;;7.30;79.50;;;;;;5048941;28;20041;-76
2021/11/18 07:32:16;;;;;;;9.63;8.73;;;7.20;79.40;;;;;;5045542;28;20043;-75
2021/11/18 07:34:43;;;;;;;8.70;8.10;;;7.20;79.40;;;;;;5046425;28;20052;-77
2021/11/18 07:37:09;;;;;;;7.87;7.47;;;7.20;79.40;;;;;;5047992;28;20050;-76
2021/11/18 07:39:35;;;;;;;7.33;7.03;;;7.20;79.40;;;;;;5056616;28;20041;-75
2021/11/18 07:42:01;;;;;;;8.43;8.00;;;7.20;79.40;;;;;;5049229;28;20385;-76
2021/11/18 07:44:27;;;;;;;7.53;7.23;;;7.30;79.40;;;;;;5049525;28;20036;-75
2021/11/18 07:46:53;;;;;;;7.67;7.27;;;7.30;79.30;;;;;;5049826;28;20036;-77
2021/11/18 07:49:20;;;;;;;7.40;7.10;;;7.30;79.30;;;;;;5048976;28;20039;-76
2021/11/18 07:51:46;;;;;;;7.87;7.47;;;7.30;79.30;;;;;;5050101;28;20040;-77
2021/11/18 07:54:15;;;;;;;8.17;7.67;;;7.30;79.30;;;;;;5051698;28;20040;-78
2021/11/18 07:56:41;;;;;;;8.03;7.53;;;7.30;79.30;;;;;;5049286;28;20048;-77
2021/11/18 07:59:08;;;;;;;9.50;8.90;;;7.30;79.30;;;;;;5049158;28;20469;-77
2021/11/18 08:01:34;;;;;;;7.40;7.00;;;7.40;79.30;;;;;;5043471;28;20045;-77
2021/11/18 08:04:00;;;;;;;7.97;7.57;;;7.40;79.20;;;;;;5047609;28;20052;-81
2021/11/18 08:06:27;;;;;;;12.03;10.30;;;7.40;79.20;;;;;;5045786;28;20041;-80
2021/11/18 08:08:55;;;;;;;7.60;7.20;;;7.40;79.20;;;;;;5050492;28;20037;-79
2021/11/18 08:11:27;;;;;;;7.70;7.30;;;7.50;79.10;;;;;;5044352;28;20033;-80
2021/11/18 08:13:55;;;;;;;7.83;7.43;;;7.50;79.10;;;;;;5035751;28;20021;-80
2021/11/18 08:16:21;;;;;;;7.97;7.57;;;7.60;79.00;;;;;;5044590;28;20037;-79
2021/11/18 08:18:47;;;;;;;7.37;7.00;;;7.50;78.90;;;;;;5050325;28;20484;-78
2021/11/18 08:21:14;;;;;;;7.65;7.25;;;7.60;79.00;;;;;;5045189;28;20040;-78
2021/11/18 08:23:40;;;;;;;7.60;7.20;;;7.60;79.00;;;;;;5035763;28;20033;-79
2021/11/18 08:26:08;;;;;;;7.75;7.35;;;7.70;79.00;;;;;;5020247;28;20044;-79
2021/11/18 08:28:34;;;;;;;7.43;7.03;;;7.70;78.90;;;;;;5046627;28;20032;-78
2021/11/18 08:31:01;;;;;;;8.07;7.68;;;7.70;78.80;;;;;;5048916;28;20038;-79
2021/11/18 08:33:28;;;;;;;7.78;7.38;;;7.80;78.80;;;;;;5041462;28;20494;-78
2021/11/18 08:35:54;;;;;;;17.55;7.43;;;7.80;78.80;;;;;;5021990;28;20041;-81
2021/11/18 08:38:21;;;;;;;7.47;7.05;;;7.90;78.70;;;;;;5043905;28;20040;-78
2021/11/18 08:41:02;;;;;;;7.90;7.50;;;7.90;78.70;;;;;;5047899;28;20041;-78
2021/11/18 08:43:28;;;;;;;7.38;7.07;;;7.90;78.70;;;;;;5029813;28;20033;-78
2021/11/18 08:45:54;;;;;;;7.43;6.93;;;8.00;78.60;;;;;;5047044;28;20041;-78
2021/11/18 08:48:21;;;;;;;7.35;7.05;;;8.00;78.50;;;;;;5035092;28;20459;-80
2021/11/18 08:50:48;;;;;;;8.32;7.93;;;8.10;78.60;;;;;;5042322;28;20055;-81
2021/11/18 08:53:15;;;;;;;8.00;7.60;;;8.00;78.40;;;;;;5042574;28;20025;-78
2021/11/18 08:55:42;;;;;;;6.97;6.68;;;8.10;78.50;;;;;;5041074;28;20038;-79
2021/11/18 08:58:12;;;;;;;8.23;7.73;;;8.10;78.40;;;;;;5048406;28;20036;-81
2021/11/18 09:00:52;;;;;;;8.50;8.10;;;8.10;78.40;;;;;;5049261;28;20474;-79
2021/11/18 09:03:19;;;;;;;8.40;7.83;;;8.10;78.40;;;;;;5048604;28;20025;-80
2021/11/18 09:05:45;;;;;;;7.22;6.93;;;8.20;78.50;;;;;;5031079;28;20294;-81
2021/11/18 09:08:12;;;;;;;9.07;8.48;;;8.20;78.50;;;;;;5047980;28;20683;-78
2021/11/18 09:10:38;;;;;;;8.57;8.17;;;8.20;78.40;;;;;;5055840;28;20041;-79
2021/11/18 09:13:05;;;;;;;8.82;8.32;;;8.30;78.40;;;;;;5031865;28;20390;-78
2021/11/18 09:15:31;;;;;;;9.15;8.63;;;8.40;78.40;;;;;;5047412;28;20122;-78
2021/11/18 09:17:58;;;;;;;8.68;8.23;;;8.50;78.30;;;;;;5051072;28;20397;-78
2021/11/18 09:20:25;;;;;;;9.00;8.50;;;8.50;78.10;;;;;;5043324;28;20075;-78
2021/11/18 09:22:57;;;;;;;9.00;8.50;;;8.60;78.00;;;;;;5046468;28;20033;-78
2021/11/18 09:25:27;;;;;;;8.35;7.95;;;8.70;78.00;;;;;;5032033;28;20021;-79
2021/11/18 09:27:54;;;;;;;9.02;8.52;;;8.80;78.00;;;;;;5036589;28;20043;-79
2021/11/18 09:30:24;;;;;;;8.85;8.45;;;8.80;77.80;;;;;;5034593;28;20059;-80
2021/11/18 09:32:51;;;;;;;8.13;7.65;;;8.90;77.80;;;;;;5050889;28;20040;-81
2021/11/18 09:35:20;;;;;;;8.25;7.85;;;9.00;77.70;;;;;;5051395;28;20037;-78
2021/11/18 09:37:46;;;;;;;9.05;8.52;;;9.00;77.70;;;;;;5050950;28;20021;-78
2021/11/18 09:40:15;;;;;;;9.27;8.68;;;9.10;77.70;;;;;;5050735;28;20025;-76
2021/11/18 09:43:06;;;;;;;8.57;8.18;;;9.10;77.70;;;;;;5051467;28;20505;-78
2021/11/18 09:45:37;;;;;;;8.77;8.32;;;9.20;77.70;;;;;;5051704;28;20489;-78
2021/11/18 09:48:18;;;;;;;8.85;8.45;;;9.20;77.70;;;;;;5034709;28;20029;-79
2021/11/18 09:50:53;;;;;;;8.65;8.25;;;9.30;77.70;;;;;;5034863;28;20401;-81
2021/11/18 09:53:34;;;;;;;8.35;7.95;;;9.30;77.70;;;;;;5051347;28;20036;-78
2021/11/18 09:56:39;;;;;;;9.40;8.90;;;9.30;77.70;;;;;;5035751;28;20040;-80
2021/11/18 09:59:23;;;;;;;8.48;8.07;;;9.40;77.70;;;;;;5051493;28;20203;-79
2021/11/18 10:02:18;;;;;;;9.07;8.68;;;9.50;77.50;;;;;;5044235;28;20051;-78
2021/11/18 10:04:55;;;;;;;9.63;9.13;;;9.60;77.50;;;;;;5039103;28;20029;-77
2021/11/18 10:07:25;;;;;;;9.93;9.20;;;9.70;77.40;;;;;;5052509;28;20025;-77
2021/11/18 10:10:10;;;;;;;10.05;9.43;;;9.80;77.30;;;;;;5043590;28;20033;-78
2021/11/18 10:12:57;;;;;;;9.35;8.65;;;9.90;77.30;;;;;;5050400;28;20033;-77
2021/11/18 10:15:27;;;;;;;17.63;8.75;;;9.90;77.20;;;;;;5049233;28;20037;-77
2021/11/18 10:18:18;;;;;;;9.23;8.73;;;10.00;77.20;;;;;;5043821;28;20040;-78
2021/11/18 10:20:45;;;;;;;9.10;8.60;;;10.10;77.20;;;;;;5048076;28;20037;-77
2021/11/18 10:23:14;;;;;;;9.35;8.85;;;10.10;77.10;;;;;;5020648;28;20045;-78
2021/11/18 10:25:58;;;;;;;7.82;7.43;;;10.20;77.10;;;;;;5022135;28;20033;-78
2021/11/18 10:28:29;;;;;;;9.32;8.75;;;10.30;77.10;;;;;;5047974;28;20041;-78
2021/11/18 10:31:09;;;;;;;7.80;7.40;;;10.30;77.00;;;;;;5049606;28;20049;-79
2021/11/18 10:33:47;;;;;;;10.77;9.35;;;10.40;77.00;;;;;;5034322;28;20047;-78
2021/11/18 10:36:32;;;;;;;10.35;9.82;;;10.40;77.00;;;;;;5048593;28;20040;-78
2021/11/18 10:39:10;;;;;;;9.77;9.18;;;10.40;77.00;;;;;;5049866;28;20509;-80
2021/11/18 10:41:36;;;;;;;9.43;8.93;;;10.50;77.10;;;;;;5045874;28;20509;-79
2021/11/18 10:44:14;;;;;;;9.55;9.05;;;10.50;77.00;;;;;;5033588;28;20029;-78
2021/11/18 10:46:55;;;;;;;9.95;8.77;;;10.50;77.00;;;;;;5036761;28;20037;-78
2021/11/18 10:49:30;;;;;;;10.40;9.70;;;10.60;77.10;;;;;;5031354;28;20394;-77
2021/11/18 10:52:00;;;;;;;10.13;9.45;;;10.60;77.10;;;;;;5036385;28;20873;-78
2021/11/18 10:54:49;;;;;;;9.20;8.70;;;10.60;77.10;;;;;;5051259;28;20032;-78
2021/11/18 10:57:21;;;;;;;9.13;8.73;;;10.70;77.10;;;;;;5050025;28;20021;-81
2021/11/18 10:59:53;;;;;;;9.27;8.68;;;10.80;77.10;;;;;;5047734;28;20032;-80
2021/11/18 11:02:31;;;;;;;9.90;9.40;;;10.90;77.00;;;;;;5046846;28;20040;-79
2021/11/18 11:04:59;;;;;;;9.68;9.18;;;10.90;76.90;;;;;;5047080;28;20039;-77
2021/11/18 11:07:42;;;;;;;9.10;8.70;;;11.00;76.80;;;;;;5046049;28;20025;-77
2021/11/18 11:10:12;;;;;;;8.57;8.18;;;11.10;76.80;;;;;;5034326;28;20402;-79
2021/11/18 11:12:50;;;;;;;9.00;8.48;;;11.20;76.60;;;;;;5031948;28;20036;-78
2021/11/18 11:15:22;;;;;;;8.48;8.00;;;11.20;76.60;;;;;;5045489;28;20412;-78
2021/11/18 11:18:07;;;;;;;8.90;8.40;;;11.20;76.60;;;;;;5044703;28;20036;-77
2021/11/18 11:20:36;;;;;;;8.88;8.48;;;11.30;76.60;;;;;;5044295;28;20091;-77
2021/11/18 11:23:25;;;;;;;9.40;8.90;;;11.40;76.60;;;;;;5044849;28;20033;-78
2021/11/18 11:26:36;;;;;;;11.02;9.75;;;11.40;76.50;;;;;;5039649;28;20045;-77
2021/11/18 11:29:39;;;;;;;9.77;9.30;;;11.50;76.50;;;;;;5014023;28;20041;-77
2021/11/18 11:32:16;;;;;;;9.02;8.57;;;11.60;76.40;;;;;;5000729;28;20041;-78
2021/11/18 11:35:11;;;;;;;9.80;9.30;;;11.70;76.20;;;;;;4986585;28;20045;-78
2021/11/18 11:38:10;;;;;;;12.52;11.75;;;11.80;76.20;;;;;;5016781;28;20049;-78
2021/11/18 11:41:03;;;;;;;10.40;9.70;;;11.90;76.10;;;;;;5008870;28;20042;-78
2021/11/18 11:43:37;;;;;;;10.70;10.00;;;11.90;75.90;;;;;;5026016;28;20034;-78
2021/11/18 11:46:20;;;;;;;10.38;9.68;;;12.00;75.90;;;;;;5027218;28;20060;-78
2021/11/18 11:49:03;;;;;;;11.73;10.60;;;12.10;75.90;;;;;;5027210;28;20042;-77
2021/11/18 11:51:45;;;;;;;11.57;9.80;;;12.20;75.80;;;;;;5027091;28;20045;-78
2021/11/18 11:54:16;;;;;;;;;;;12.30;76.00;;;;;;4996980;28;20409;-77
2021/11/18 11:56:44;;;;;;;;;;;12.30;75.60;;;;;;5011150;28;19915;-78
2021/11/18 11:59:15;;;;;;;10.60;10.07;;;12.30;75.50;;;;;;5008681;28;20397;-77
2021/11/18 12:02:03;;;;;;;11.20;10.60;;;12.40;75.40;;;;;;5015392;28;20561;-78
2021/11/18 12:04:41;;;;;;;10.93;10.32;;;12.50;75.40;;;;;;5020552;28;20035;-78
2021/11/18 12:07:25;;;;;;;10.40;9.85;;;12.50;75.30;;;;;;5040098;28;20032;-78
2021/11/18 12:10:06;;;;;;;10.63;10.13;;;12.60;75.30;;;;;;5051058;28;20393;-77
2021/11/18 12:12:38;;;;;;;;;;;12.60;75.30;;;;;;5037518;28;20037;-77
2021/11/18 12:15:12;;;;;;;10.45;9.95;;;12.60;75.20;;;;;;5049097;28;19909;-77
2021/11/18 12:17:42;;;;;;;11.38;10.73;;;12.70;75.10;;;;;;5038656;28;20029;-77
2021/11/18 12:20:17;;;;;;;11.35;10.85;;;12.80;75.10;;;;;;5036792;28;20026;-77
2021/11/18 12:22:43;;;;;;;10.95;10.45;;;12.80;74.90;;;;;;5042807;28;20029;-77
2021/11/18 12:25:35;;;;;;;10.15;9.68;;;12.80;74.80;;;;;;5046135;28;20032;-78
2021/11/18 12:28:10;;;;;;;11.80;11.20;;;12.90;74.60;;;;;;5038430;28;20481;-78
2021/11/18 12:30:55;;;;;;;12.20;11.60;;;12.90;74.50;;;;;;5046110;28;20048;-77
2021/11/18 12:33:22;;;;;;;12.75;12.15;;;13.00;74.50;;;;;;5049351;28;20382;-77
2021/11/18 12:36:38;;;;;;;13.00;12.15;;;13.00;74.40;;;;;;5046912;28;20041;-77
2021/11/18 12:39:17;;;;;;;12.60;12.00;;;13.10;74.20;;;;;;4970999;28;20511;-77
2021/11/18 12:42:04;;;;;;;12.95;12.35;;;13.10;74.10;;;;;;4968156;28;20412;-79
2021/11/18 12:44:47;;;;;;;13.20;12.60;;;13.20;73.90;;;;;;4954293;28;20031;-80
2021/11/18 12:47:34;;;;;;;13.07;12.48;;;13.20;73.70;;;;;;4949931;28;20532;-79
2021/11/18 12:50:27;;;;;;;13.10;12.50;;;13.20;73.60;;;;;;4953103;28;20046;-80
2021/11/18 12:53:11;;;;;;;13.70;13.00;;;13.30;73.60;;;;;;4954219;28;20047;-78
2021/11/18 12:55:46;;;;;;;13.48;12.32;;;13.30;73.60;;;;;;4967045;28;20035;-78
2021/11/18 12:58:26;;;;;;;13.55;12.93;;;13.30;73.40;;;;;;4969430;28;20237;-78
2021/11/18 13:01:21;;;;;;;13.32;12.73;;;13.30;73.30;;;;;;4978798;28;20030;-79
2021/11/18 13:03:50;;;;;;;13.07;12.48;;;13.30;73.40;;;;;;4967094;28;20038;-78
2021/11/18 13:06:38;;;;;;;12.52;11.93;;;13.30;73.40;;;;;;4968557;28;20038;-78
2021/11/18 13:09:08;;;;;;;13.88;13.27;;;13.30;73.50;;;;;;4973265;28;20047;-77